Historyczne dane pomiarowe

Dodano dane terminowe – wersja testowa.

Dane z okresu 1951-2019

Wersja bazy: 1.34 [2019-03-16, lista zmian], aktualizacja planowana na 2019-04-15

Dane meteo z obszaru Polski uzyskane na podstawie danych udostępnionych przez Instytut Meteorologii i Gospodarki Wodnej – Państwowy Instytut Badawczy.

 

Wybierz Datę:    

       

TemperaturaWilgotnośćWiatrCiśnienieOpadyŚniegCzas trwania zjawisk
 Stacja t tx tn tng RH VA  wxwx mslp ppp RRR   cm mm wxwxwxwxwxwxwx
1952-04-17 5.5 12.0 -1.1- 62.0- 0.0 0.7---- 0.0------------
1952-04-18 8.1 15.1 2.1- 71.8- 0.0 0.7---- 0.0------------
1952-04-19 9.4 16.8 1.8- 74.3- 1.0 1.3---- 0.0------------
1952-04-20 12.6 18.9 0.1- 63.0- 0.3 0.7---- 0.1------------
1952-04-21 11.5 15.9 9.4- 82.5- 4.7 1.0---- 0.0------------
1952-04-22 14.9 23.3 8.0- 76.5- 6.0 2.3---- 5.0------------
1952-04-23 10.3 12.5 8.7- 84.0- 8.0 0.7---- 3.4------------
1952-04-24 7.1 10.8 6.3- 91.0- 8.0 1.3---- 7.8------------
1952-04-25 8.8 11.2 5.5- 87.8- 8.0 0.7---- 0.9------------
1952-04-26 7.5 12.6 4.6- 84.0- 4.0 0.3---- 0.0------------
1952-04-27 6.8 9.4 5.6- 88.8- 8.0 1.0---- 0.1------------
1952-04-28 10.3 15.1 5.5- 88.8- 7.3 0.7---- 20.5------------
1952-04-29 6.8 10.5 4.7- 97.3- 8.0 0.3---- 2.0------------
1952-04-30 13.2 18.1 2.6- 75.3- 0.7 0.7---- 0.3------------
1952-05-01 9.9 17.5 6.4- 85.0- 4.0 2.3---- 1.8------------
1952-05-02 5.4 9.4 3.5- 87.8- 5.7 1.7---- 0.0------------
1952-05-03 10.0 15.7 0.1- 66.8- 0.0 1.0---- 0.0------------
1952-05-04 18.5 23.2 6.6- 56.3- 1.0 2.7---- 0.0------------
1952-05-05 15.0 20.9 12.1- 83.8- 8.0 1.0---- 4.7------------
1952-05-06 14.4 20.4 10.2- 76.8- 3.3 1.0---- 0.0------------
1952-05-07 14.7 23.3 8.5- 79.5- 1.0 1.0---- 0.0------------
1952-05-08 12.9 20.5 7.0- 76.5- 2.7 1.3---- 0.0------------
1952-05-09 14.2 20.3 9.5- 50.0- 0.0 2.3---- 0.0------------
1952-05-10 15.1 21.3 7.9- 69.0- 6.0 2.0---- 0.0------------
1952-05-11 9.2 14.3 7.7- 89.0- 5.3 1.7---- 0.0------------
1952-05-12 13.1 18.9 2.0- 73.3- 2.0 0.7---- 4.4------------
1952-05-13 8.9 12.3 7.8- 93.3- 8.0 1.0---- 5.4------------
1952-05-14 10.0 12.9 7.0- 87.0- 8.0 2.0---- 7.3------------
1952-05-15 5.9 10.5 3.6- 83.0- 6.7 1.3---- 1.4------------
1952-05-16 3.2 6.6 -1.3- 92.0- 7.3 0.7---- 4.6------------
70.0 ms

 

Źródłem pochodzenia danych jest Instytut Meteorologii i Gospodarki Wodnej – Państwowy Instytut Badawczy. Dane Instytutu Meteorologii i Gospodarki Wodnej – Państwowego Instytutu Badawczego zostały przetworzone.

Dane źródłowe można odnaleźć na stronie https://dane.imgw.pl